Time;durP1;ratioP1;P1;durP2;ratioP2;P2;SDS_P1;SDS_P2;PMS_P1;PMS_P2;Temp;Humidity;BMP_temperature;BMP_pressure;BME280_temperature;BME280_humidity;BME280_pressure;Samples;Min_cycle;Max_cycle;Signal;HPM_P1;HPM_P2
2022/11/17 00:02:07;;;;;;;0.30;0.30;;;4.40;99.90;;;;;;4946382;28;20205;-86
2022/11/17 00:04:33;;;;;;;0.40;0.40;;;4.30;99.90;;;;;;4946524;28;20190;-85
2022/11/17 00:06:58;;;;;;;0.30;0.30;;;4.40;99.90;;;;;;4948561;29;20723;-88
2022/11/17 00:09:24;;;;;;;0.40;0.40;;;4.40;99.90;;;;;;4945539;28;20203;-88
2022/11/17 00:14:35;;;;;;;0.40;0.40;;;4.40;99.90;;;;;;4946572;29;20197;-87
2022/11/17 00:17:11;;;;;;;0.40;0.40;;;4.40;99.90;;;;;;4953304;28;20443;-87
2022/11/17 00:22:22;;;;;;;0.40;0.40;;;4.40;99.90;;;;;;4945870;29;20584;-87
2022/11/17 00:24:48;;;;;;;0.40;0.40;;;4.30;99.90;;;;;;4947205;29;20465;-86
2022/11/17 00:27:14;;;;;;;0.50;0.50;;;4.40;99.90;;;;;;4946909;28;20493;-85
2022/11/17 00:29:40;;;;;;;0.40;0.40;;;4.40;99.90;;;;;;4952936;28;20413;-86
2022/11/17 00:34:55;;;;;;;0.40;0.40;;;4.50;99.90;;;;;;4947611;28;20301;-87
2022/11/17 00:37:21;;;;;;;0.40;0.40;;;4.50;99.90;;;;;;4950714;29;20603;-87
2022/11/17 00:39:47;;;;;;;0.40;0.40;;;4.50;99.90;;;;;;4945795;28;20235;-88
2022/11/17 00:42:12;;;;;;;0.40;0.40;;;4.50;99.90;;;;;;4943502;29;20450;-88
2022/11/17 00:44:38;;;;;;;0.47;0.47;;;4.60;99.90;;;;;;4950465;28;20213;-88
2022/11/17 00:47:03;;;;;;;0.40;0.40;;;4.60;99.90;;;;;;4942979;28;20295;-88
2022/11/17 00:49:29;;;;;;;0.40;0.40;;;4.50;99.90;;;;;;4951483;28;20218;-87
2022/11/17 00:51:55;;;;;;;0.40;0.40;;;4.50;99.90;;;;;;4948685;28;20197;-87
2022/11/17 00:54:21;;;;;;;0.50;0.50;;;4.50;99.90;;;;;;5020013;28;20191;-86
2022/11/17 00:56:47;;;;;;;0.40;0.40;;;4.50;99.90;;;;;;5018136;28;20474;-85
2022/11/17 00:59:13;;;;;;;0.40;0.40;;;4.50;99.90;;;;;;4957749;28;20453;-88
2022/11/17 01:01:38;;;;;;;0.40;0.40;;;4.40;99.90;;;;;;4968183;28;20178;-85
2022/11/17 01:04:05;;;;;;;0.30;0.30;;;4.40;99.90;;;;;;4953688;28;20950;-87
2022/11/17 01:06:39;;;;;;;0.40;0.40;;;4.40;99.90;;;;;;4948651;28;20210;-85
2022/11/17 01:09:10;;;;;;;0.30;0.30;;;4.40;99.90;;;;;;4943777;28;21187;-86
2022/11/17 01:11:35;;;;;;;0.33;0.33;;;4.40;99.90;;;;;;4948933;28;20462;-85
2022/11/17 01:14:01;;;;;;;0.40;0.40;;;4.40;99.90;;;;;;4939620;28;20469;-87
2022/11/17 01:16:28;;;;;;;0.40;0.40;;;4.40;99.90;;;;;;4950335;28;20352;-86
2022/11/17 01:18:54;;;;;;;0.40;0.40;;;4.40;99.90;;;;;;4950142;28;20179;-87
2022/11/17 01:21:25;;;;;;;0.50;0.50;;;4.40;99.90;;;;;;4943603;28;20792;-86
2022/11/17 01:23:53;;;;;;;0.40;0.40;;;4.40;99.90;;;;;;4945985;29;20252;-86
2022/11/17 01:26:21;;;;;;;0.40;0.40;;;4.40;99.90;;;;;;4948826;28;20676;-87
2022/11/17 01:28:47;;;;;;;0.30;0.30;;;4.40;99.90;;;;;;4950880;28;20651;-85
2022/11/17 01:31:14;;;;;;;0.37;0.37;;;4.40;99.90;;;;;;4940807;29;20449;-85
2022/11/17 01:33:40;;;;;;;0.40;0.40;;;4.30;99.90;;;;;;4950156;28;20450;-85
2022/11/17 01:36:12;;;;;;;0.40;0.40;;;4.40;99.90;;;;;;4945047;28;20912;-86
2022/11/17 01:38:37;;;;;;;0.40;0.40;;;4.40;99.90;;;;;;4948288;28;20478;-86
2022/11/17 01:41:05;;;;;;;0.40;0.40;;;4.30;99.90;;;;;;4950082;29;20457;-87
2022/11/17 01:43:50;;;;;;;0.40;0.40;;;4.30;99.90;;;;;;4949706;29;20195;-85
2022/11/17 01:46:24;;;;;;;0.40;0.40;;;4.30;99.90;;;;;;4939558;28;20446;-86
2022/11/17 01:48:51;;;;;;;0.33;0.33;;;4.30;99.90;;;;;;4941548;28;20454;-86
2022/11/17 01:51:18;;;;;;;0.50;0.50;;;4.30;99.90;;;;;;4948450;29;20989;-86
2022/11/17 01:53:45;;;;;;;0.40;0.40;;;4.20;99.90;;;;;;4947838;28;20450;-87
2022/11/17 01:56:17;;;;;;;0.37;0.37;;;4.20;99.90;;;;;;4951033;29;20469;-87
2022/11/17 01:58:53;;;;;;;0.40;0.40;;;4.20;99.90;;;;;;4947571;28;20845;-86
2022/11/17 02:01:18;;;;;;;0.30;0.30;;;4.10;99.90;;;;;;4941421;29;20486;-87
2022/11/17 02:03:47;;;;;;;0.40;0.40;;;4.10;99.90;;;;;;4949391;28;20501;-87
2022/11/17 02:06:19;;;;;;;0.40;0.40;;;4.10;99.90;;;;;;4947903;29;20198;-86
2022/11/17 02:08:47;;;;;;;0.40;0.40;;;4.10;99.90;;;;;;4937835;28;20961;-91
2022/11/17 02:11:15;;;;;;;0.40;0.40;;;4.10;99.90;;;;;;4946538;28;20449;-86
2022/11/17 02:13:41;;;;;;;0.40;0.40;;;4.10;99.90;;;;;;4949275;28;20447;-86
2022/11/17 02:16:11;;;;;;;0.43;0.43;;;4.10;99.90;;;;;;4947639;29;20871;-88
2022/11/17 02:18:37;;;;;;;0.40;0.40;;;4.10;99.90;;;;;;4931568;29;20648;-90
2022/11/17 02:21:15;;;;;;;0.40;0.40;;;4.10;99.90;;;;;;4947233;29;20450;-89
2022/11/17 02:24:02;;;;;;;0.40;0.40;;;4.10;99.90;;;;;;4950474;28;20454;-89
2022/11/17 02:26:43;;;;;;;0.50;0.50;;;4.00;99.90;;;;;;4950516;28;20474;-85
2022/11/17 02:29:14;;;;;;;0.40;0.40;;;4.10;99.90;;;;;;4952727;28;20458;-86
2022/11/17 02:31:57;;;;;;;0.40;0.40;;;4.10;99.90;;;;;;4947644;28;20446;-87
2022/11/17 02:34:53;;;;;;;0.40;0.40;;;4.10;99.90;;;;;;4948097;28;20817;-89
2022/11/17 02:37:36;;;;;;;0.40;0.40;;;4.10;99.90;;;;;;4964051;28;20452;-87
2022/11/17 02:40:12;;;;;;;0.40;0.40;;;4.10;99.90;;;;;;4948970;28;21326;-88
2022/11/17 02:45:49;;;;;;;0.40;0.40;;;4.00;99.90;;;;;;4948497;28;20467;-86
2022/11/17 02:48:31;;;;;;;0.40;0.40;;;4.00;99.90;;;;;;4949178;28;20525;-85
2022/11/17 02:50:57;;;;;;;0.50;0.50;;;4.00;99.90;;;;;;4948866;28;20851;-85
2022/11/17 02:53:25;;;;;;;0.40;0.40;;;3.90;99.90;;;;;;4953457;28;20450;-86
2022/11/17 02:55:52;;;;;;;0.30;0.30;;;3.90;99.90;;;;;;4946551;28;20266;-86
2022/11/17 02:58:18;;;;;;;0.40;0.40;;;3.80;99.90;;;;;;4948488;28;20541;-87
2022/11/17 03:00:57;;;;;;;0.30;0.30;;;3.70;99.90;;;;;;4949644;28;20482;-88
2022/11/17 03:03:47;;;;;;;0.40;0.40;;;3.70;99.90;;;;;;4957465;28;20451;-91
2022/11/17 03:06:21;;;;;;;0.40;0.40;;;3.60;99.90;;;;;;4948548;28;20793;-89
2022/11/17 03:08:58;;;;;;;0.50;0.50;;;3.70;99.90;;;;;;4942922;28;20851;-87
2022/11/17 03:11:37;;;;;;;0.50;0.50;;;3.60;99.90;;;;;;4947750;29;20457;-90
2022/11/17 03:14:31;;;;;;;0.40;0.40;;;3.70;99.90;;;;;;4945345;28;21228;-93
2022/11/17 03:17:19;;;;;;;0.50;0.50;;;3.60;99.90;;;;;;4954714;28;20822;-86
2022/11/17 03:19:54;;;;;;;0.40;0.40;;;3.60;99.90;;;;;;4947278;28;20815;-90
2022/11/17 03:22:41;;;;;;;0.40;0.40;;;3.50;99.90;;;;;;4963579;28;20478;-88
2022/11/17 03:25:12;;;;;;;0.50;0.50;;;3.50;99.90;;;;;;4934761;29;20505;-89
2022/11/17 03:27:48;;;;;;;0.50;0.50;;;3.50;99.90;;;;;;4948198;28;20544;-88
2022/11/17 03:30:15;;;;;;;0.40;0.40;;;3.50;99.90;;;;;;4947569;28;21128;-90
2022/11/17 03:32:47;;;;;;;0.50;0.50;;;3.50;99.90;;;;;;4968764;28;20451;-90
2022/11/17 03:35:19;;;;;;;0.50;0.50;;;3.50;99.90;;;;;;4944679;29;20538;-88
2022/11/17 03:38:00;;;;;;;0.40;0.40;;;3.50;99.90;;;;;;4950025;29;20529;-89
2022/11/17 03:40:29;;;;;;;0.40;0.40;;;3.50;99.90;;;;;;4950678;28;20856;-89
2022/11/17 03:43:00;;;;;;;0.50;0.50;;;3.50;99.90;;;;;;4936613;28;20472;-89
2022/11/17 03:45:29;;;;;;;0.40;0.40;;;3.50;99.90;;;;;;4936196;28;20531;-89
2022/11/17 03:48:06;;;;;;;0.40;0.40;;;3.50;99.90;;;;;;4938601;28;20490;-93
2022/11/17 03:51:06;;;;;;;0.50;0.50;;;3.50;99.90;;;;;;4932516;28;20453;-89
2022/11/17 03:53:34;;;;;;;0.50;0.50;;;3.50;99.90;;;;;;4952264;28;20549;-91
2022/11/17 03:56:05;;;;;;;0.50;0.50;;;3.60;99.90;;;;;;4931133;28;20547;-90
2022/11/17 03:58:33;;;;;;;0.40;0.40;;;3.50;99.90;;;;;;4948114;28;20458;-90
2022/11/17 04:01:02;;;;;;;0.40;0.40;;;3.60;99.90;;;;;;4946057;29;20461;-90
2022/11/17 04:03:32;;;;;;;0.40;0.40;;;3.60;99.90;;;;;;4946038;28;21100;-91
2022/11/17 04:05:58;;;;;;;0.50;0.50;;;3.60;99.90;;;;;;4948617;28;20442;-89
2022/11/17 04:08:28;;;;;;;0.37;0.37;;;3.60;99.90;;;;;;4949119;28;20494;-90
2022/11/17 04:16:22;;;;;;;0.40;0.40;;;3.60;99.90;;;;;;4941806;28;20438;-92
2022/11/17 04:18:48;;;;;;;0.50;0.50;;;3.60;99.90;;;;;;4947198;28;20831;-88
2022/11/17 04:21:13;;;;;;;0.40;0.40;;;3.60;99.90;;;;;;4948950;28;20688;-88
2022/11/17 04:23:39;;;;;;;0.40;0.40;;;3.60;99.90;;;;;;4943955;28;20270;-90
2022/11/17 04:28:49;;;;;;;0.40;0.40;;;3.60;99.90;;;;;;4944553;28;20213;-90
2022/11/17 04:31:16;;;;;;;0.40;0.40;;;3.60;99.90;;;;;;4947278;28;20446;-89
2022/11/17 04:33:47;;;;;;;0.40;0.40;;;3.60;99.90;;;;;;4950315;28;20453;-90
2022/11/17 04:36:15;;;;;;;0.50;0.50;;;3.60;99.90;;;;;;4944491;28;20984;-88
2022/11/17 04:38:49;;;;;;;0.50;0.50;;;3.60;99.90;;;;;;4947545;29;20518;-91
2022/11/17 04:44:00;;;;;;;0.40;0.40;;;3.50;99.90;;;;;;4947610;28;20460;-89
2022/11/17 04:46:27;;;;;;;0.40;0.40;;;3.60;99.90;;;;;;4950224;28;20458;-88
2022/11/17 04:48:54;;;;;;;0.40;0.40;;;3.60;99.90;;;;;;4948810;28;20918;-89
2022/11/17 04:51:20;;;;;;;0.50;0.50;;;3.60;99.90;;;;;;4948016;28;20454;-88
2022/11/17 04:53:46;;;;;;;0.40;0.40;;;3.60;99.90;;;;;;4947359;28;20454;-89
2022/11/17 04:56:12;;;;;;;0.50;0.50;;;3.60;99.90;;;;;;4946645;28;20478;-90
2022/11/17 04:58:39;;;;;;;0.50;0.50;;;3.50;99.90;;;;;;4951126;28;20928;-89
2022/11/17 05:01:15;;;;;;;0.50;0.50;;;3.50;99.90;;;;;;4940734;28;20456;-87
2022/11/17 05:03:52;;;;;;;0.40;0.40;;;3.50;99.90;;;;;;4951663;28;20453;-89
2022/11/17 05:06:32;;;;;;;0.50;0.50;;;3.50;99.90;;;;;;4948177;28;20515;-90
2022/11/17 05:09:01;;;;;;;0.40;0.40;;;3.50;99.90;;;;;;4949799;28;20458;-89
2022/11/17 05:14:15;;;;;;;0.40;0.40;;;3.50;99.90;;;;;;4951177;28;20448;-90
2022/11/17 05:19:26;;;;;;;0.40;0.40;;;3.50;99.90;;;;;;4952003;28;20461;-93
2022/11/17 05:21:52;;;;;;;0.50;0.50;;;3.40;99.90;;;;;;4951336;29;20458;-90
2022/11/17 05:24:18;;;;;;;0.43;0.43;;;3.40;99.90;;;;;;4950745;28;20472;-92
2022/11/17 05:26:45;;;;;;;0.50;0.50;;;3.40;99.90;;;;;;4949245;28;20965;-93
2022/11/17 05:29:13;;;;;;;0.50;0.50;;;3.40;99.90;;;;;;4950013;28;20659;-89
2022/11/17 05:31:39;;;;;;;0.40;0.40;;;3.40;99.90;;;;;;4943231;28;20453;-91
2022/11/17 05:34:07;;;;;;;0.50;0.50;;;3.30;99.90;;;;;;4948431;28;20454;-91
2022/11/17 05:36:33;;;;;;;0.40;0.40;;;3.30;99.90;;;;;;4943463;28;20457;-89
2022/11/17 05:38:59;;;;;;;0.40;0.40;;;3.30;99.90;;;;;;4949413;28;20490;-88
2022/11/17 05:41:26;;;;;;;0.40;0.40;;;3.30;99.90;;;;;;4945910;28;20457;-90
2022/11/17 05:43:52;;;;;;;0.50;0.50;;;3.30;99.90;;;;;;4950069;28;20454;-93
2022/11/17 05:46:18;;;;;;;0.40;0.40;;;3.30;99.90;;;;;;4949930;28;20496;-90
2022/11/17 05:48:45;;;;;;;0.50;0.50;;;3.30;99.90;;;;;;4963490;28;20220;-88
2022/11/17 05:51:11;;;;;;;0.40;0.40;;;3.30;99.90;;;;;;4951902;28;20468;-90
2022/11/17 05:53:37;;;;;;;0.50;0.50;;;3.30;99.90;;;;;;4945661;28;20454;-91
2022/11/17 05:56:20;;;;;;;0.40;0.40;;;3.30;99.90;;;;;;4946845;28;20187;-88
2022/11/17 05:58:50;;;;;;;0.40;0.40;;;3.30;99.90;;;;;;4938201;28;20444;-92
2022/11/17 06:01:18;;;;;;;0.50;0.50;;;3.30;99.90;;;;;;4963249;28;20462;-90
2022/11/17 06:03:48;;;;;;;0.50;0.50;;;3.30;99.90;;;;;;4947752;28;20454;-89
2022/11/17 06:06:14;;;;;;;0.50;0.50;;;3.40;99.90;;;;;;4943154;28;20817;-91
2022/11/17 06:08:41;;;;;;;0.30;0.30;;;3.40;99.90;;;;;;4948202;28;20573;-90
2022/11/17 06:11:06;;;;;;;0.50;0.50;;;3.40;99.90;;;;;;4948359;28;20478;-87
2022/11/17 06:13:32;;;;;;;0.40;0.40;;;3.40;99.90;;;;;;4945600;28;21137;-88
2022/11/17 06:16:01;;;;;;;0.40;0.40;;;3.30;99.90;;;;;;4949758;28;20190;-89
2022/11/17 06:18:39;;;;;;;0.40;0.40;;;3.30;99.90;;;;;;4938293;28;20344;-90
2022/11/17 06:21:06;;;;;;;0.40;0.40;;;3.40;99.90;;;;;;4946298;28;20442;-89
2022/11/17 06:23:32;;;;;;;0.50;0.50;;;3.40;99.90;;;;;;4944444;28;20474;-89
2022/11/17 06:26:02;;;;;;;0.40;0.40;;;3.40;99.90;;;;;;4949551;28;20950;-87
2022/11/17 06:28:29;;;;;;;0.50;0.50;;;3.40;99.90;;;;;;4944547;28;20501;-90
2022/11/17 06:30:56;;;;;;;0.50;0.50;;;3.40;99.90;;;;;;4990253;28;20443;-90
2022/11/17 06:33:25;;;;;;;0.50;0.50;;;3.30;99.90;;;;;;4947861;28;20544;-91
2022/11/17 06:35:51;;;;;;;0.50;0.50;;;3.30;99.90;;;;;;4949535;28;20446;-89
2022/11/17 06:38:16;;;;;;;0.50;0.50;;;3.40;99.90;;;;;;4948548;28;20489;-88
2022/11/17 06:40:42;;;;;;;0.40;0.40;;;3.40;99.90;;;;;;4951460;28;20455;-88
2022/11/17 06:43:10;;;;;;;0.40;0.40;;;3.40;99.90;;;;;;4948967;28;20202;-89
2022/11/17 06:45:41;;;;;;;0.50;0.50;;;3.40;99.90;;;;;;4960192;28;20618;-88
2022/11/17 06:48:08;;;;;;;0.40;0.40;;;3.40;99.90;;;;;;4946267;28;21090;-88
2022/11/17 06:50:34;;;;;;;0.50;0.50;;;3.40;99.90;;;;;;4949928;28;20496;-86
2022/11/17 06:53:01;;;;;;;0.30;0.30;;;3.40;99.90;;;;;;4936077;28;20496;-86
2022/11/17 06:55:27;;;;;;;0.40;0.40;;;3.40;99.90;;;;;;4937651;28;20934;-89
2022/11/17 06:57:59;;;;;;;0.40;0.40;;;3.30;99.90;;;;;;4948904;28;20483;-90
2022/11/17 07:00:25;;;;;;;0.40;0.40;;;3.30;99.90;;;;;;4944378;28;20447;-90
2022/11/17 07:02:50;;;;;;;0.50;0.50;;;3.40;99.90;;;;;;4957179;28;20441;-91
2022/11/17 07:05:16;;;;;;;0.50;0.50;;;3.40;99.90;;;;;;4950759;28;20442;-90
2022/11/17 07:07:42;;;;;;;0.50;0.50;;;3.40;99.90;;;;;;4939687;28;20257;-90
2022/11/17 07:10:08;;;;;;;0.40;0.40;;;3.40;99.90;;;;;;4942404;28;20340;-92
2022/11/17 07:12:34;;;;;;;0.40;0.40;;;3.30;99.90;;;;;;4950339;28;20254;-92
2022/11/17 07:14:59;;;;;;;0.50;0.50;;;3.30;99.90;;;;;;4948289;28;20891;-93
2022/11/17 07:17:25;;;;;;;0.50;0.50;;;3.30;99.90;;;;;;4944149;28;20711;-91
2022/11/17 07:19:52;;;;;;;0.50;0.50;;;3.30;99.90;;;;;;4936671;28;20191;-88
2022/11/17 07:22:17;;;;;;;0.50;0.50;;;3.30;99.90;;;;;;4953301;28;20191;-91
2022/11/17 07:24:43;;;;;;;0.47;0.47;;;3.30;99.90;;;;;;4937336;28;21011;-87
2022/11/17 07:27:09;;;;;;;0.40;0.40;;;3.30;99.90;;;;;;4947005;28;20222;-90
2022/11/17 07:29:34;;;;;;;0.50;0.50;;;3.30;99.90;;;;;;4946042;28;20189;-89
2022/11/17 07:32:00;;;;;;;0.50;0.50;;;3.40;99.90;;;;;;4945591;28;20193;-88
2022/11/17 07:34:25;;;;;;;0.50;0.50;;;3.30;99.90;;;;;;4949017;28;20195;-88
2022/11/17 07:36:51;;;;;;;0.50;0.50;;;3.40;99.90;;;;;;4948014;28;20209;-88
2022/11/17 07:39:16;;;;;;;0.50;0.50;;;3.40;99.90;;;;;;4946084;28;20241;-87
2022/11/17 07:41:42;;;;;;;0.43;0.43;;;3.40;99.90;;;;;;4940136;28;20187;-90
2022/11/17 07:44:08;;;;;;;0.50;0.50;;;3.50;99.90;;;;;;4959145;28;20654;-85
2022/11/17 07:46:33;;;;;;;0.40;0.40;;;3.50;99.90;;;;;;4944438;28;20186;-89
2022/11/17 07:48:59;;;;;;;0.40;0.40;;;3.40;99.90;;;;;;4948402;28;20202;-89
2022/11/17 07:51:25;;;;;;;0.40;0.40;;;3.40;99.90;;;;;;4943969;28;20210;-88
2022/11/17 07:53:50;;;;;;;0.40;0.40;;;3.50;99.90;;;;;;4935682;28;20206;-88
2022/11/17 07:56:16;;;;;;;0.40;0.40;;;3.40;99.90;;;;;;4943220;28;21206;-87
2022/11/17 07:58:41;;;;;;;0.40;0.40;;;3.40;99.90;;;;;;4937422;28;20198;-88
2022/11/17 08:01:09;;;;;;;0.40;0.40;;;3.40;99.90;;;;;;4931870;28;20195;-88
2022/11/17 08:03:35;;;;;;;0.40;0.40;;;3.40;99.90;;;;;;4935327;28;20193;-87
2022/11/17 08:06:03;;;;;;;0.50;0.50;;;3.40;99.90;;;;;;4924379;28;20454;-89
2022/11/17 08:08:28;;;;;;;0.50;0.50;;;3.50;99.90;;;;;;4933608;28;21031;-87
2022/11/17 08:10:54;;;;;;;0.40;0.40;;;3.40;99.90;;;;;;4938662;28;20453;-90
2022/11/17 08:13:19;;;;;;;0.40;0.40;;;3.50;99.90;;;;;;4959183;28;21954;-89
2022/11/17 08:15:45;;;;;;;0.50;0.50;;;3.50;99.90;;;;;;4945082;28;20210;-90
2022/11/17 08:18:10;;;;;;;0.47;0.47;;;3.50;99.90;;;;;;4943669;28;20194;-88
2022/11/17 08:20:36;;;;;;;0.50;0.50;;;3.60;99.90;;;;;;4935117;28;20187;-87
2022/11/17 08:23:01;;;;;;;0.50;0.50;;;3.50;99.90;;;;;;4946281;29;20310;-90
2022/11/17 08:25:27;;;;;;;0.40;0.40;;;3.50;99.90;;;;;;4944756;28;20195;-89
2022/11/17 08:27:57;;;;;;;0.40;0.40;;;3.50;99.90;;;;;;4946593;28;20954;-89
2022/11/17 08:30:23;;;;;;;0.40;0.40;;;3.60;99.90;;;;;;4947658;28;20187;-88
2022/11/17 08:32:51;;;;;;;0.50;0.50;;;3.60;99.90;;;;;;4946149;28;20450;-88
2022/11/17 08:35:19;;;;;;;0.50;0.50;;;3.60;99.90;;;;;;4950094;28;20450;-88
2022/11/17 08:37:44;;;;;;;0.50;0.50;;;3.60;99.90;;;;;;4946553;28;20450;-87
2022/11/17 08:40:12;;;;;;;0.37;0.37;;;3.60;99.90;;;;;;4936367;28;20485;-88
2022/11/17 08:42:38;;;;;;;0.50;0.50;;;3.70;99.90;;;;;;4939592;28;20190;-88
2022/11/17 08:45:05;;;;;;;0.47;0.47;;;3.70;99.90;;;;;;4939562;28;20541;-85
2022/11/17 08:47:30;;;;;;;0.40;0.40;;;3.60;99.90;;;;;;4947625;28;20478;-87
2022/11/17 08:49:56;;;;;;;0.40;0.40;;;3.70;99.90;;;;;;4949796;28;20461;-87
2022/11/17 08:52:21;;;;;;;0.40;0.40;;;3.70;99.90;;;;;;4945798;28;20647;-86
2022/11/17 08:54:47;;;;;;;0.40;0.40;;;3.70;99.90;;;;;;4942414;28;20673;-86
2022/11/17 08:57:12;;;;;;;0.50;0.50;;;3.70;99.90;;;;;;4946479;28;20195;-87
2022/11/17 08:59:38;;;;;;;0.40;0.40;;;3.80;99.90;;;;;;4957026;28;20202;-86
2022/11/17 09:02:04;;;;;;;0.40;0.40;;;3.70;99.90;;;;;;4947812;28;20264;-86
2022/11/17 09:04:30;;;;;;;0.50;0.50;;;3.70;99.90;;;;;;4945649;28;20214;-87
2022/11/17 09:06:55;;;;;;;0.40;0.40;;;3.80;99.90;;;;;;4947594;28;20509;-86
2022/11/17 09:09:21;;;;;;;0.40;0.40;;;3.70;99.90;;;;;;4951428;29;20288;-88
2022/11/17 09:11:46;;;;;;;0.40;0.40;;;3.80;99.90;;;;;;4956051;28;20563;-88
2022/11/17 09:14:12;;;;;;;0.50;0.50;;;3.80;99.90;;;;;;4944350;28;20222;-88
2022/11/17 09:16:37;;;;;;;0.30;0.30;;;3.80;99.90;;;;;;4937639;28;20194;-87
2022/11/17 09:19:03;;;;;;;0.40;0.40;;;3.80;99.90;;;;;;4951135;28;20554;-87
2022/11/17 09:21:30;;;;;;;0.40;0.40;;;3.80;99.90;;;;;;4950665;29;20191;-88
2022/11/17 09:23:55;;;;;;;0.50;0.50;;;3.80;99.90;;;;;;4948551;29;20187;-89
2022/11/17 09:26:21;;;;;;;0.40;0.40;;;3.80;99.90;;;;;;4948403;28;20543;-87
2022/11/17 09:28:47;;;;;;;0.30;0.30;;;3.80;99.90;;;;;;4950953;29;20218;-87
2022/11/17 09:31:16;;;;;;;0.40;0.40;;;3.80;99.90;;;;;;4949690;28;20183;-88
2022/11/17 09:33:42;;;;;;;0.40;0.40;;;3.90;99.90;;;;;;4951185;29;20494;-87
2022/11/17 09:36:08;;;;;;;0.40;0.40;;;3.90;99.90;;;;;;4947880;29;20482;-88
2022/11/17 09:38:35;;;;;;;0.40;0.40;;;3.90;99.90;;;;;;4950514;28;20485;-87
2022/11/17 09:41:20;;;;;;;0.40;0.40;;;4.00;99.90;;;;;;4948782;29;20829;-88
2022/11/17 09:44:01;;;;;;;0.50;0.50;;;4.00;99.90;;;;;;4949692;28;20453;-89
2022/11/17 09:46:44;;;;;;;0.40;0.40;;;4.00;99.90;;;;;;4947872;28;20460;-87
2022/11/17 09:49:40;;;;;;;0.40;0.40;;;4.00;99.90;;;;;;4948689;29;20461;-87
2022/11/17 09:52:18;;;;;;;0.40;0.40;;;4.00;99.90;;;;;;4950913;29;20826;-87
2022/11/17 09:54:58;;;;;;;0.40;0.40;;;4.00;99.90;;;;;;4949336;28;20466;-87
2022/11/17 09:57:35;;;;;;;0.40;0.40;;;4.00;99.90;;;;;;4950705;28;20996;-87
2022/11/17 10:00:10;;;;;;;0.50;0.50;;;4.10;99.90;;;;;;4947590;28;20446;-88
2022/11/17 10:02:36;;;;;;;0.40;0.40;;;4.00;99.90;;;;;;4952341;28;20524;-86
2022/11/17 10:05:02;;;;;;;0.33;0.33;;;4.00;99.90;;;;;;4955094;28;20588;-87
2022/11/17 10:07:30;;;;;;;0.40;0.40;;;4.00;99.90;;;;;;4945714;28;20587;-88
2022/11/17 10:09:59;;;;;;;0.30;0.30;;;4.00;99.90;;;;;;4944722;28;21023;-87
2022/11/17 10:12:31;;;;;;;0.33;0.33;;;4.10;99.90;;;;;;4949598;28;20454;-86
2022/11/17 10:15:06;;;;;;;0.40;0.40;;;4.10;99.90;;;;;;4949552;28;21224;-86
2022/11/17 10:17:32;;;;;;;0.40;0.40;;;4.10;99.90;;;;;;4945636;28;20453;-90
2022/11/17 10:19:58;;;;;;;0.50;0.50;;;4.00;99.90;;;;;;4942961;28;20540;-88
2022/11/17 10:22:35;;;;;;;0.40;0.40;;;4.10;99.90;;;;;;4952522;28;20469;-87
2022/11/17 10:25:01;;;;;;;0.40;0.40;;;4.10;99.90;;;;;;4939745;28;20559;-88
2022/11/17 10:27:32;;;;;;;0.37;0.37;;;4.00;99.90;;;;;;4952666;28;20493;-87
2022/11/17 10:30:03;;;;;;;0.47;0.47;;;4.00;99.90;;;;;;4949890;28;20194;-88
2022/11/17 10:32:31;;;;;;;0.50;0.50;;;4.10;99.90;;;;;;4948917;28;20503;-89
2022/11/17 10:35:20;;;;;;;0.40;0.40;;;4.00;99.90;;;;;;4950328;28;20461;-88
2022/11/17 10:38:01;;;;;;;0.40;0.40;;;4.00;99.90;;;;;;4948287;28;20477;-90
2022/11/17 10:40:44;;;;;;;0.30;0.30;;;4.10;99.90;;;;;;4954013;28;20450;-88
2022/11/17 10:43:13;;;;;;;0.40;0.40;;;4.10;99.90;;;;;;4937204;28;20493;-88
2022/11/17 10:45:44;;;;;;;0.40;0.40;;;4.10;99.90;;;;;;4939696;28;20454;-87
2022/11/17 10:48:20;;;;;;;0.40;0.40;;;4.10;99.90;;;;;;4939599;28;20521;-87
2022/11/17 10:50:59;;;;;;;0.40;0.40;;;4.00;99.90;;;;;;4950660;28;20903;-88
2022/11/17 10:53:32;;;;;;;0.40;0.40;;;4.10;99.90;;;;;;4948153;28;20442;-87
2022/11/17 10:56:13;;;;;;;0.40;0.40;;;4.00;99.90;;;;;;4950439;28;20529;-88
2022/11/17 10:59:12;;;;;;;0.40;0.40;;;4.10;99.90;;;;;;4952485;28;20500;-90
2022/11/17 11:01:44;;;;;;;0.40;0.40;;;4.10;99.90;;;;;;4944030;28;20451;-89
2022/11/17 11:04:33;;;;;;;0.50;0.50;;;4.10;99.90;;;;;;4946704;28;20505;-89
2022/11/17 11:07:19;;;;;;;0.40;0.40;;;4.10;99.90;;;;;;4950035;28;20478;-87
2022/11/17 11:10:01;;;;;;;0.40;0.40;;;4.10;99.90;;;;;;4944098;28;20454;-87
2022/11/17 11:13:12;;;;;;;0.40;0.40;;;4.10;99.90;;;;;;4928279;28;20448;-89
2022/11/17 11:15:38;;;;;;;0.37;0.37;;;4.10;99.90;;;;;;4944702;28;20957;-88
2022/11/17 11:18:26;;;;;;;0.40;0.40;;;4.10;99.90;;;;;;4947345;28;20466;-88
2022/11/17 11:21:06;;;;;;;0.30;0.30;;;4.10;99.90;;;;;;4953094;28;20677;-87
2022/11/17 11:23:57;;;;;;;0.30;0.30;;;4.10;99.90;;;;;;4958026;28;20462;-86
2022/11/17 11:26:48;;;;;;;0.40;0.40;;;4.10;99.90;;;;;;4957300;28;20471;-87
2022/11/17 11:29:32;;;;;;;0.40;0.40;;;4.10;99.90;;;;;;4946433;28;20465;-85
2022/11/17 11:32:21;;;;;;;0.40;0.40;;;4.10;99.90;;;;;;4958270;28;20452;-87
2022/11/17 11:35:29;;;;;;;0.40;0.40;;;4.10;99.90;;;;;;4938485;28;20595;-85
2022/11/17 11:38:27;;;;;;;0.40;0.40;;;4.10;99.90;;;;;;4929605;28;20519;-87
2022/11/17 11:41:03;;;;;;;0.50;0.50;;;4.00;99.90;;;;;;4947284;28;20458;-87
2022/11/17 11:43:54;;;;;;;0.50;0.50;;;4.00;99.90;;;;;;4943514;28;20454;-85
2022/11/17 11:46:36;;;;;;;0.40;0.40;;;4.10;99.90;;;;;;4953358;28;20442;-86
2022/11/17 11:49:17;;;;;;;0.47;0.47;;;4.10;99.90;;;;;;4943466;28;20463;-85
2022/11/17 11:51:47;;;;;;;0.30;0.30;;;4.10;99.90;;;;;;4951232;28;20448;-86
2022/11/17 11:54:22;;;;;;;0.40;0.40;;;4.20;99.90;;;;;;4933878;28;20443;-85
2022/11/17 11:56:48;;;;;;;0.40;0.40;;;4.20;99.90;;;;;;4948300;28;20442;-87
2022/11/17 11:59:23;;;;;;;0.50;0.50;;;4.20;99.90;;;;;;4919244;28;20828;-86
2022/11/17 12:02:01;;;;;;;0.40;0.40;;;4.20;99.90;;;;;;4923662;28;20446;-85
2022/11/17 12:04:44;;;;;;;0.40;0.40;;;4.20;99.90;;;;;;4917410;28;20456;-86
2022/11/17 12:07:22;;;;;;;0.30;0.30;;;4.30;99.90;;;;;;4949904;28;20495;-87
2022/11/17 12:10:13;;;;;;;0.40;0.40;;;4.30;99.90;;;;;;4937093;28;20442;-87
2022/11/17 12:12:39;;;;;;;0.47;0.47;;;4.30;99.90;;;;;;4945811;28;20512;-87
2022/11/17 12:15:17;;;;;;;0.40;0.40;;;4.30;99.90;;;;;;4947750;28;20495;-86
2022/11/17 12:17:58;;;;;;;0.40;0.40;;;4.30;99.90;;;;;;4932239;29;20535;-86
2022/11/17 12:20:29;;;;;;;0.40;0.40;;;4.30;99.90;;;;;;4936478;28;20461;-85
2022/11/17 12:23:27;;;;;;;0.30;0.30;;;4.30;99.90;;;;;;4941891;28;20438;-87
2022/11/17 12:25:56;;;;;;;0.40;0.40;;;4.30;99.90;;;;;;4939637;28;20439;-85
2022/11/17 12:28:36;;;;;;;0.40;0.40;;;4.30;99.90;;;;;;4926070;28;20486;-89
2022/11/17 12:31:05;;;;;;;0.40;0.40;;;4.30;99.90;;;;;;4949757;28;20544;-87
2022/11/17 12:33:53;;;;;;;0.40;0.40;;;4.30;99.90;;;;;;4937967;28;20446;-87
2022/11/17 12:36:25;;;;;;;0.30;0.30;;;4.30;99.90;;;;;;4937359;28;20450;-88
2022/11/17 12:38:53;;;;;;;0.50;0.50;;;4.30;99.90;;;;;;4945315;29;20506;-87
2022/11/17 12:41:49;;;;;;;0.40;0.40;;;4.30;99.90;;;;;;4950489;28;20465;-83
2022/11/17 12:44:37;;;;;;;0.40;0.40;;;4.30;99.90;;;;;;4945300;28;20450;-83
2022/11/17 12:47:18;;;;;;;0.40;0.40;;;4.30;99.90;;;;;;4961822;28;20485;-86
2022/11/17 12:49:47;;;;;;;0.30;0.30;;;4.30;99.90;;;;;;4944254;28;20990;-87
2022/11/17 12:52:21;;;;;;;0.40;0.40;;;4.30;99.90;;;;;;4950755;28;20442;-87
2022/11/17 12:54:55;;;;;;;0.40;0.40;;;4.30;99.90;;;;;;4949411;28;20445;-86
2022/11/17 12:57:26;;;;;;;0.30;0.30;;;4.30;99.90;;;;;;4963188;28;20472;-87
2022/11/17 13:00:28;;;;;;;0.40;0.40;;;4.30;99.90;;;;;;4945065;28;20442;-86
2022/11/17 13:03:07;;;;;;;0.40;0.40;;;4.30;99.90;;;;;;4944088;28;20453;-85
2022/11/17 13:05:33;;;;;;;0.40;0.40;;;4.30;99.90;;;;;;4943729;28;20460;-86
2022/11/17 13:08:13;;;;;;;0.40;0.40;;;4.30;99.90;;;;;;4956555;28;20494;-86
2022/11/17 13:10:40;;;;;;;0.40;0.40;;;4.30;99.90;;;;;;4936095;28;20245;-87
2022/11/17 13:13:20;;;;;;;0.30;0.30;;;4.30;99.90;;;;;;4951068;28;20541;-87
2022/11/17 13:15:52;;;;;;;0.30;0.30;;;4.30;99.90;;;;;;4943783;28;20465;-88
2022/11/17 13:18:30;;;;;;;0.40;0.40;;;4.30;99.90;;;;;;4941218;28;20585;-88
2022/11/17 13:20:58;;;;;;;0.50;0.50;;;4.20;99.90;;;;;;4946632;28;20454;-87
2022/11/17 13:23:27;;;;;;;0.40;0.40;;;4.30;99.90;;;;;;4961269;28;20460;-87
2022/11/17 13:26:09;;;;;;;0.40;0.40;;;4.20;99.90;;;;;;4953678;28;20965;-85
2022/11/17 13:28:35;;;;;;;0.37;0.37;;;4.20;99.90;;;;;;4952175;28;20486;-86
2022/11/17 13:31:01;;;;;;;0.40;0.40;;;4.30;99.90;;;;;;4949538;28;20449;-86
2022/11/17 13:33:27;;;;;;;0.40;0.40;;;4.30;99.90;;;;;;4945209;28;20644;-85
2022/11/17 13:36:26;;;;;;;0.30;0.30;;;4.30;99.90;;;;;;4944031;28;20446;-88
2022/11/17 13:38:59;;;;;;;0.30;0.30;;;4.20;99.90;;;;;;4939552;28;20523;-90
2022/11/17 13:41:25;;;;;;;0.40;0.40;;;4.30;99.90;;;;;;4946804;28;20496;-90
2022/11/17 13:43:53;;;;;;;0.40;0.40;;;4.20;99.90;;;;;;4948266;28;20450;-92
2022/11/17 13:46:19;;;;;;;0.40;0.40;;;4.20;99.90;;;;;;4942621;28;20484;-89
2022/11/17 13:48:46;;;;;;;0.40;0.40;;;4.20;99.90;;;;;;4948621;28;20494;-88